createdAt,value
2022-08-28T00:01:29.602Z,9.65
2022-08-28T00:03:01.900Z,11.00
2022-08-28T00:04:34.413Z,7.32
2022-08-28T00:06:06.494Z,8.13
2022-08-28T00:07:38.353Z,10.45
2022-08-28T00:09:11.348Z,11.30
2022-08-28T00:10:43.855Z,7.25
2022-08-28T00:12:15.751Z,9.80
2022-08-28T00:13:48.375Z,8.70
2022-08-28T00:15:23.880Z,7.28
2022-08-28T00:16:55.796Z,9.50
2022-08-28T00:18:29.437Z,13.02
2022-08-28T00:20:01.394Z,11.77
2022-08-28T00:21:34.022Z,8.90
2022-08-28T00:23:06.837Z,9.93
2022-08-28T00:26:11.825Z,11.23
2022-08-28T00:27:52.856Z,7.32
2022-08-28T00:29:25.014Z,7.40
2022-08-28T00:30:59.353Z,7.97
2022-08-28T00:32:31.222Z,11.63
2022-08-28T00:34:03.387Z,10.33
2022-08-28T00:35:35.373Z,7.93
2022-08-28T00:37:07.422Z,12.80
2022-08-28T00:38:39.238Z,10.15
2022-08-28T00:40:16.025Z,8.45
2022-08-28T00:41:48.564Z,7.93
2022-08-28T00:43:39.251Z,12.38
2022-08-28T00:45:11.188Z,12.00
2022-08-28T00:46:46.154Z,15.02
2022-08-28T00:48:17.973Z,10.27
2022-08-28T00:49:51.859Z,10.82
2022-08-28T00:51:42.396Z,12.15
2022-08-28T00:53:14.306Z,10.10
2022-08-28T00:54:59.446Z,7.10
2022-08-28T00:56:32.458Z,7.60
2022-08-28T00:59:38.878Z,9.55
2022-08-28T01:01:11.659Z,16.38
2022-08-28T01:04:18.148Z,9.00
2022-08-28T01:05:50.058Z,9.80
2022-08-28T01:07:23.405Z,9.60
2022-08-28T01:08:55.280Z,9.35
2022-08-28T01:10:32.898Z,8.98
2022-08-28T01:12:30.704Z,6.80
2022-08-28T01:14:03.134Z,5.57
2022-08-28T01:15:37.203Z,8.35
2022-08-28T01:17:10.315Z,11.20
2022-08-28T01:18:43.557Z,10.57
2022-08-28T01:20:21.261Z,12.05
2022-08-28T01:22:25.465Z,8.40
2022-08-28T01:24:01.217Z,8.63
2022-08-28T01:25:35.277Z,13.60
2022-08-28T01:27:07.130Z,10.20
2022-08-28T01:28:39.861Z,10.97
2022-08-28T01:30:14.672Z,9.73
2022-08-28T01:31:47.520Z,8.32
2022-08-28T01:33:19.703Z,6.68
2022-08-28T01:35:00.702Z,11.38
2022-08-28T01:36:33.746Z,10.85
2022-08-28T01:38:05.608Z,10.60
2022-08-28T01:39:37.428Z,9.33
2022-08-28T01:41:09.238Z,7.38
2022-08-28T01:42:42.472Z,6.28
2022-08-28T01:44:17.954Z,10.55
2022-08-28T01:45:56.147Z,7.22
2022-08-28T01:47:28.072Z,10.68
2022-08-28T01:49:00.482Z,10.93
2022-08-28T01:50:33.810Z,8.25
2022-08-28T01:52:05.774Z,9.63
2022-08-28T01:53:38.792Z,10.18
2022-08-28T01:55:11.700Z,8.32
2022-08-28T01:56:44.544Z,8.70
2022-08-28T01:59:48.230Z,10.90
2022-08-28T02:01:21.545Z,8.20
2022-08-28T02:02:56.249Z,7.70
2022-08-28T02:04:29.599Z,8.43
2022-08-28T02:06:17.985Z,9.82
2022-08-28T02:07:50.710Z,12.63
2022-08-28T02:10:54.281Z,9.30
2022-08-28T02:12:26.114Z,10.85
2022-08-28T02:13:57.949Z,10.07
2022-08-28T02:15:33.160Z,8.95
2022-08-28T02:17:05.108Z,9.77
2022-08-28T02:18:38.051Z,6.70
2022-08-28T02:20:10.299Z,10.25
2022-08-28T02:21:42.233Z,10.13
2022-08-28T02:23:14.455Z,8.33
2022-08-28T02:24:46.862Z,11.93
2022-08-28T02:26:19.745Z,11.07
2022-08-28T02:29:23.714Z,13.38
2022-08-28T02:30:55.657Z,9.23
2022-08-28T02:32:27.777Z,10.20
2022-08-28T02:33:59.551Z,12.57
2022-08-28T02:35:31.468Z,9.48
2022-08-28T02:37:03.644Z,11.20
2022-08-28T02:38:36.198Z,11.18
2022-08-28T02:40:09.341Z,13.70
2022-08-28T02:41:41.360Z,14.55
2022-08-28T02:43:13.168Z,15.13
2022-08-28T02:44:45.062Z,12.17
2022-08-28T02:46:17.258Z,10.60
2022-08-28T02:47:52.260Z,13.68
2022-08-28T02:49:24.203Z,12.00
2022-08-28T02:51:04.047Z,10.57
2022-08-28T02:52:37.547Z,8.73
2022-08-28T02:54:09.378Z,8.38
2022-08-28T02:55:41.281Z,13.13
2022-08-28T02:57:14.336Z,8.93
2022-08-28T02:58:46.133Z,10.73
2022-08-28T03:00:21.594Z,8.37
2022-08-28T03:01:53.702Z,9.45
2022-08-28T03:03:25.783Z,13.43
2022-08-28T03:04:59.957Z,10.20
2022-08-28T03:06:32.798Z,11.95
2022-08-28T03:08:05.188Z,11.98
2022-08-28T03:09:37.117Z,10.50
2022-08-28T03:11:09.110Z,9.27
2022-08-28T03:12:41.054Z,12.85
2022-08-28T03:14:12.832Z,11.77
2022-08-28T03:15:45.777Z,9.25
2022-08-28T03:17:22.292Z,10.75
2022-08-28T03:18:54.057Z,10.55
2022-08-28T03:20:26.592Z,12.25
2022-08-28T03:21:58.426Z,8.63
2022-08-28T03:23:31.884Z,15.67
2022-08-28T03:25:03.982Z,10.10
2022-08-28T03:26:35.793Z,11.18
2022-08-28T03:28:07.639Z,9.07
2022-08-28T03:29:39.938Z,9.48
2022-08-28T03:31:14.522Z,12.93
2022-08-28T03:32:46.457Z,12.63
2022-08-28T03:34:18.301Z,10.85
2022-08-28T03:35:50.680Z,10.00
2022-08-28T03:37:22.612Z,11.70
2022-08-28T03:38:56.181Z,9.30
2022-08-28T03:40:28.054Z,11.73
2022-08-28T03:42:01.121Z,15.13
2022-08-28T03:43:34.183Z,9.02
2022-08-28T03:45:09.244Z,8.57
2022-08-28T03:46:41.190Z,7.25
2022-08-28T03:48:13.213Z,11.38
2022-08-28T03:49:48.299Z,9.23
2022-08-28T03:51:29.192Z,12.73
2022-08-28T03:53:01.664Z,8.43
2022-08-28T03:54:33.666Z,11.63
2022-08-28T03:56:11.096Z,11.18
2022-08-28T03:57:42.934Z,14.70
2022-08-28T03:59:14.778Z,8.90
2022-08-28T04:00:47.259Z,9.07
2022-08-28T04:02:20.659Z,9.88
2022-08-28T04:03:52.771Z,10.38
2022-08-28T04:05:24.999Z,11.40
2022-08-28T04:06:57.660Z,9.25
2022-08-28T04:08:30.267Z,8.70
2022-08-28T04:10:02.400Z,9.52
2022-08-28T04:11:39.061Z,11.60
2022-08-28T04:13:11.824Z,9.50
2022-08-28T04:16:19.186Z,8.68
2022-08-28T04:17:51.122Z,15.57
2022-08-28T04:19:22.964Z,8.47
2022-08-28T04:21:03.417Z,11.23
2022-08-28T04:22:35.451Z,13.98
2022-08-28T04:24:09.674Z,12.30
2022-08-28T04:25:41.864Z,8.57
2022-08-28T04:27:15.129Z,15.48
2022-08-28T04:28:48.058Z,14.13
2022-08-28T04:30:19.895Z,14.02
2022-08-28T04:31:51.990Z,9.43
2022-08-28T04:33:25.368Z,10.50
2022-08-28T04:34:57.300Z,11.20
2022-08-28T04:36:29.535Z,16.45
2022-08-28T04:38:04.286Z,10.05
2022-08-28T04:39:37.347Z,8.02
2022-08-28T04:41:11.202Z,11.53
2022-08-28T04:42:45.169Z,17.15
2022-08-28T04:44:17.328Z,13.18
2022-08-28T04:45:49.199Z,15.50
2022-08-28T04:47:23.935Z,13.47
2022-08-28T04:48:56.089Z,12.05
2022-08-28T04:50:27.949Z,14.68
2022-08-28T04:51:59.801Z,7.75
2022-08-28T04:53:32.977Z,10.90
2022-08-28T04:55:05.186Z,10.90
2022-08-28T04:56:37.783Z,12.70
2022-08-28T04:58:10.670Z,8.75
2022-08-28T04:59:45.097Z,9.93
2022-08-28T05:01:19.693Z,13.23
2022-08-28T05:02:51.798Z,8.70
2022-08-28T05:04:23.710Z,15.48
2022-08-28T05:05:55.634Z,10.00
2022-08-28T05:07:27.471Z,14.03
2022-08-28T05:09:01.032Z,11.00
2022-08-28T05:10:32.853Z,8.15
2022-08-28T05:12:05.780Z,11.97
2022-08-28T05:13:38.177Z,10.50
2022-08-28T05:15:10.683Z,14.02
2022-08-28T05:16:48.364Z,10.32
2022-08-28T05:18:22.282Z,8.07
2022-08-28T05:19:54.455Z,7.45
2022-08-28T05:21:26.241Z,10.80
2022-08-28T05:22:58.043Z,9.02
2022-08-28T05:24:29.887Z,13.30
2022-08-28T05:26:01.973Z,14.25
2022-08-28T05:27:33.791Z,9.07
2022-08-28T05:29:06.315Z,11.82
2022-08-28T05:30:39.562Z,9.30
2022-08-28T05:32:11.334Z,8.95
2022-08-28T05:33:44.583Z,12.98
2022-08-28T05:35:16.465Z,11.52
2022-08-28T05:36:50.521Z,13.40
2022-08-28T05:38:22.390Z,11.13
2022-08-28T05:39:54.221Z,8.37
2022-08-28T05:41:30.283Z,7.07
2022-08-28T05:43:02.067Z,14.32
2022-08-28T05:44:33.893Z,9.25
2022-08-28T05:46:10.584Z,10.88
2022-08-28T05:47:43.767Z,8.30
2022-08-28T05:49:17.946Z,13.50
2022-08-28T05:50:49.838Z,10.55
2022-08-28T05:52:21.935Z,10.37
2022-08-28T05:53:54.146Z,7.70
2022-08-28T05:55:25.981Z,13.05
2022-08-28T05:56:57.907Z,12.30
2022-08-28T05:58:29.663Z,7.50
2022-08-28T06:00:02.441Z,9.68
2022-08-28T06:01:43.386Z,12.27
2022-08-28T06:03:15.324Z,11.23
2022-08-28T06:04:49.134Z,10.10
2022-08-28T06:06:21.997Z,7.32
2022-08-28T06:07:53.846Z,14.38
2022-08-28T06:09:29.685Z,14.80
2022-08-28T06:11:05.392Z,8.30
2022-08-28T06:12:38.760Z,7.65
2022-08-28T06:14:13.901Z,12.45
2022-08-28T06:15:47.875Z,10.70
2022-08-28T06:17:23.452Z,15.77
2022-08-28T06:18:56.104Z,10.27
2022-08-28T06:20:27.945Z,9.50
2022-08-28T06:22:06.968Z,10.27
2022-08-28T06:23:52.381Z,12.43
2022-08-28T06:25:24.173Z,12.70
2022-08-28T06:26:58.702Z,15.57
2022-08-28T06:30:21.456Z,9.93
2022-08-28T06:31:55.712Z,10.90
2022-08-28T06:33:27.685Z,8.95
2022-08-28T06:34:59.533Z,13.15
2022-08-28T06:36:33.928Z,16.42
2022-08-28T06:38:06.661Z,14.25
2022-08-28T06:39:38.693Z,10.25
2022-08-28T06:41:10.493Z,9.05
2022-08-28T06:42:42.415Z,7.97
2022-08-28T06:44:20.642Z,10.77
2022-08-28T06:45:54.924Z,11.32
2022-08-28T06:47:26.763Z,11.20
2022-08-28T06:48:58.683Z,13.43
2022-08-28T06:50:30.569Z,9.10
2022-08-28T06:52:02.510Z,8.83
2022-08-28T06:53:34.590Z,21.17
2022-08-28T06:55:07.231Z,8.88
2022-08-28T06:56:39.154Z,8.50
2022-08-28T06:58:12.747Z,11.20
2022-08-28T06:59:44.865Z,8.70
2022-08-28T07:01:18.038Z,10.65
2022-08-28T07:02:49.865Z,11.70
2022-08-28T07:04:21.820Z,8.20
2022-08-28T07:06:01.035Z,9.67
2022-08-28T07:07:32.884Z,8.60
2022-08-28T07:09:06.936Z,6.20
2022-08-28T07:10:38.727Z,7.82
2022-08-28T07:12:10.551Z,6.73
2022-08-28T07:13:43.452Z,14.10
2022-08-28T07:15:15.330Z,11.23
2022-08-28T07:16:47.283Z,9.70
2022-08-28T07:18:19.162Z,14.20
2022-08-28T07:19:51.625Z,7.95
2022-08-28T07:21:23.898Z,11.07
2022-08-28T07:22:59.539Z,11.25
2022-08-28T07:24:31.713Z,10.85
2022-08-28T07:26:10.523Z,9.10
2022-08-28T07:27:42.468Z,10.70
2022-08-28T07:29:14.640Z,8.70
2022-08-28T07:30:46.830Z,10.38
2022-08-28T07:32:19.578Z,4.95
2022-08-28T07:33:54.045Z,8.13
2022-08-28T07:35:26.306Z,10.35
2022-08-28T07:37:03.879Z,11.93
2022-08-28T07:38:36.109Z,10.95
2022-08-28T07:40:10.287Z,9.38
2022-08-28T07:41:43.736Z,9.35
2022-08-28T07:43:34.410Z,7.57
2022-08-28T07:45:06.828Z,9.80
2022-08-28T07:46:39.496Z,6.85
2022-08-28T07:48:11.809Z,8.82
2022-08-28T07:49:44.917Z,5.53
2022-08-28T07:51:16.864Z,10.85
2022-08-28T07:52:48.697Z,6.38
2022-08-28T07:54:20.754Z,6.05
2022-08-28T07:55:52.643Z,9.60
2022-08-28T07:57:24.562Z,9.38
2022-08-28T07:59:01.223Z,6.57
2022-08-28T08:00:33.088Z,8.15
2022-08-28T08:02:05.872Z,10.20
2022-08-28T08:05:10.663Z,8.23
2022-08-28T08:06:46.973Z,9.43
2022-08-28T08:09:50.617Z,6.95
2022-08-28T08:11:22.493Z,7.53
2022-08-28T08:12:55.848Z,6.70
2022-08-28T08:14:28.283Z,4.82
2022-08-28T08:16:12.736Z,6.40
2022-08-28T08:17:45.262Z,9.02
2022-08-28T08:19:17.469Z,6.63
2022-08-28T08:20:49.277Z,7.20
2022-08-28T08:22:21.174Z,10.53
2022-08-28T08:23:53.024Z,5.97
2022-08-28T08:25:24.845Z,10.05
2022-08-28T08:27:02.004Z,10.23
2022-08-28T08:28:35.160Z,7.90
2022-08-28T08:30:07.645Z,6.15
2022-08-28T08:31:39.740Z,10.23
2022-08-28T08:33:15.826Z,5.32
2022-08-28T08:34:47.678Z,7.85
2022-08-28T08:36:21.459Z,4.03
2022-08-28T08:37:53.330Z,9.35
2022-08-28T08:39:25.172Z,6.07
2022-08-28T08:40:59.897Z,6.13
2022-08-28T08:42:33.590Z,9.88
2022-08-28T08:44:08.206Z,7.13
2022-08-28T08:45:40.425Z,9.60
2022-08-28T08:47:24.020Z,12.20
2022-08-28T08:48:56.852Z,6.82
2022-08-28T08:50:31.926Z,7.53
2022-08-28T08:52:25.398Z,5.38
2022-08-28T08:55:45.786Z,9.13
2022-08-28T08:57:17.652Z,6.30
2022-08-28T08:58:52.152Z,5.30
2022-08-28T09:00:25.325Z,7.28
2022-08-28T09:02:05.361Z,4.97
2022-08-28T09:04:28.488Z,5.10
2022-08-28T09:06:03.850Z,6.90
2022-08-28T09:07:45.223Z,6.40
2022-08-28T09:09:26.919Z,8.38
2022-08-28T09:11:56.990Z,7.75
2022-08-28T09:13:42.406Z,8.68
2022-08-28T09:15:31.590Z,7.95
2022-08-28T09:17:05.125Z,6.25
2022-08-28T09:18:36.988Z,6.38
2022-08-28T09:20:13.953Z,3.80
2022-08-28T09:21:46.769Z,8.05
2022-08-28T09:23:18.761Z,5.28
2022-08-28T09:24:51.780Z,5.30
2022-08-28T09:26:25.539Z,6.93
2022-08-28T09:28:06.625Z,7.55
2022-08-28T09:29:47.201Z,5.57
2022-08-28T09:31:35.332Z,9.43
2022-08-28T09:33:07.224Z,5.35
2022-08-28T09:34:39.301Z,8.13
2022-08-28T09:36:32.694Z,4.95
2022-08-28T09:40:19.643Z,8.23
2022-08-28T09:42:17.386Z,7.35
2022-08-28T09:43:49.239Z,8.25
2022-08-28T09:45:24.624Z,8.73
2022-08-28T09:46:56.482Z,10.85
2022-08-28T09:48:40.057Z,8.70
2022-08-28T09:50:27.384Z,10.38
2022-08-28T09:52:02.030Z,3.17
2022-08-28T09:53:43.398Z,8.27
2022-08-28T09:55:26.143Z,7.05
2022-08-28T09:56:58.074Z,8.07
2022-08-28T09:59:10.424Z,6.28
2022-08-28T10:00:48.539Z,8.93
2022-08-28T10:02:23.272Z,7.32
2022-08-28T10:04:27.057Z,6.25
2022-08-28T10:07:49.652Z,6.68
2022-08-28T10:09:47.694Z,5.53
2022-08-28T10:11:25.700Z,5.70
2022-08-28T10:13:15.551Z,5.00
2022-08-28T10:14:54.951Z,4.72
2022-08-28T10:16:47.252Z,6.25
2022-08-28T10:18:21.929Z,3.72
2022-08-28T10:20:08.994Z,4.63
2022-08-28T10:21:57.083Z,9.13
2022-08-28T10:23:56.180Z,7.82
2022-08-28T10:25:38.077Z,6.85
2022-08-28T10:27:14.785Z,5.00
2022-08-28T10:28:58.034Z,4.63
2022-08-28T10:30:30.972Z,6.47
2022-08-28T10:32:42.208Z,4.88
2022-08-28T10:34:46.874Z,2.95
2022-08-28T10:36:34.295Z,6.15
2022-08-28T10:38:09.835Z,6.38
2022-08-28T10:40:13.168Z,5.20
2022-08-28T10:41:51.497Z,6.97
2022-08-28T10:43:30.849Z,7.05
2022-08-28T10:45:15.743Z,5.43
2022-08-28T10:46:53.665Z,8.15
2022-08-28T10:48:29.370Z,3.58
2022-08-28T10:50:08.157Z,5.05
2022-08-28T10:51:47.556Z,4.63
2022-08-28T10:53:30.968Z,4.90
2022-08-28T10:55:07.985Z,4.00
2022-08-28T10:56:44.568Z,6.53
2022-08-28T10:58:24.450Z,7.10
2022-08-28T10:59:58.812Z,5.60
2022-08-28T11:01:34.915Z,3.80
2022-08-28T11:03:26.980Z,6.40
2022-08-28T11:05:04.002Z,6.25
2022-08-28T11:06:35.878Z,4.72
2022-08-28T11:08:23.948Z,4.20
2022-08-28T11:09:55.886Z,4.78
2022-08-28T11:11:45.932Z,6.22
2022-08-28T11:13:57.022Z,6.18
2022-08-28T11:15:36.346Z,4.10
2022-08-28T11:17:14.242Z,5.13
2022-08-28T11:18:59.153Z,5.45
2022-08-28T11:20:31.158Z,4.93
2022-08-28T11:22:10.932Z,5.60
2022-08-28T11:23:44.537Z,6.35
2022-08-28T11:25:34.931Z,4.53
2022-08-28T11:27:29.543Z,6.00
2022-08-28T11:29:04.506Z,5.03
2022-08-28T11:30:38.714Z,8.00
2022-08-28T11:32:32.413Z,5.38
2022-08-28T11:34:06.062Z,7.43
2022-08-28T11:35:48.591Z,4.47
2022-08-28T11:37:42.066Z,5.18
2022-08-28T11:39:13.841Z,3.55
2022-08-28T11:40:48.743Z,3.13
2022-08-28T11:42:32.306Z,3.17
2022-08-28T11:44:04.098Z,4.30
2022-08-28T11:45:45.748Z,5.05
2022-08-28T11:49:33.810Z,7.25
2022-08-28T11:51:10.025Z,5.03
2022-08-28T11:53:14.443Z,4.30
2022-08-28T11:54:51.826Z,6.10
2022-08-28T11:56:48.508Z,4.80
2022-08-28T11:58:58.421Z,3.40
2022-08-28T12:00:42.870Z,3.17
2022-08-28T12:02:39.622Z,3.70
2022-08-28T12:04:24.568Z,4.07
2022-08-28T12:05:58.686Z,4.47
2022-08-28T12:07:41.701Z,3.83
2022-08-28T12:09:46.514Z,2.80
2022-08-28T12:11:39.887Z,2.03
2022-08-28T12:14:03.935Z,3.28
2022-08-28T12:15:35.740Z,5.20
2022-08-28T12:17:09.671Z,3.63
2022-08-28T12:18:42.884Z,4.70
2022-08-28T12:20:49.047Z,7.75
2022-08-28T12:22:23.791Z,5.63
2022-08-28T12:24:09.201Z,4.57
2022-08-28T12:25:44.172Z,3.05
2022-08-28T12:27:18.286Z,2.88
2022-08-28T12:28:59.127Z,4.40
2022-08-28T12:30:36.981Z,3.80
2022-08-28T12:32:30.372Z,4.75
2022-08-28T12:34:06.340Z,3.13
2022-08-28T12:35:41.736Z,5.88
2022-08-28T12:37:26.263Z,3.97
2022-08-28T12:39:01.217Z,4.25
2022-08-28T12:40:50.685Z,3.45
2022-08-28T12:42:27.602Z,7.05
2022-08-28T12:44:00.256Z,2.80
2022-08-28T12:45:35.080Z,5.35
2022-08-28T12:47:07.010Z,3.55
2022-08-28T12:48:54.267Z,3.72
2022-08-28T12:50:31.107Z,2.78
2022-08-28T12:52:16.615Z,3.47
2022-08-28T12:54:10.560Z,4.90
2022-08-28T12:55:43.760Z,4.30
2022-08-28T12:57:18.869Z,2.53
2022-08-28T12:58:51.033Z,5.07
2022-08-28T13:00:30.342Z,3.65
2022-08-28T13:02:09.872Z,4.20
2022-08-28T13:03:43.495Z,2.30
2022-08-28T13:05:39.729Z,4.72
2022-08-28T13:07:16.779Z,5.18
2022-08-28T13:08:49.347Z,3.42
2022-08-28T13:11:57.020Z,3.95
2022-08-28T13:13:40.273Z,4.15
2022-08-28T13:15:12.161Z,3.90
2022-08-28T13:16:46.774Z,2.13
2022-08-28T13:18:37.177Z,2.78
2022-08-28T13:20:09.417Z,3.28
2022-08-28T13:21:47.281Z,2.55
2022-08-28T13:23:29.745Z,4.13
2022-08-28T13:25:02.799Z,3.33
2022-08-28T13:26:36.617Z,5.30
2022-08-28T13:28:14.129Z,3.20
2022-08-28T13:30:07.016Z,4.38
2022-08-28T13:31:39.245Z,3.42
2022-08-28T13:33:17.144Z,4.28
2022-08-28T13:35:08.870Z,2.22
2022-08-28T13:36:48.371Z,3.60
2022-08-28T13:38:25.144Z,2.42
2022-08-28T13:39:57.197Z,2.72
2022-08-28T13:41:29.938Z,4.55
2022-08-28T13:43:07.142Z,2.75
2022-08-28T13:44:50.892Z,5.82
2022-08-28T13:46:22.843Z,4.28
2022-08-28T13:47:55.257Z,5.43
2022-08-28T13:49:28.268Z,4.00
2022-08-28T13:51:05.145Z,2.35
2022-08-28T13:52:42.474Z,2.92
2022-08-28T13:54:14.384Z,2.28
2022-08-28T13:55:46.970Z,2.85
2022-08-28T13:58:56.774Z,5.32
2022-08-28T14:00:32.191Z,3.63
2022-08-28T14:02:24.887Z,4.60
2022-08-28T14:03:58.144Z,3.97
2022-08-28T14:05:30.043Z,3.88
2022-08-28T14:07:01.908Z,2.05
2022-08-28T14:08:33.819Z,2.00
2022-08-28T14:10:06.308Z,3.22
2022-08-28T14:13:10.071Z,3.53
2022-08-28T14:14:42.438Z,3.05
2022-08-28T14:16:16.904Z,3.78
2022-08-28T14:17:48.954Z,2.22
2022-08-28T14:19:20.972Z,2.85
2022-08-28T14:20:52.905Z,8.75
2022-08-28T14:22:24.802Z,3.55
2022-08-28T14:23:56.704Z,5.28
2022-08-28T14:25:28.663Z,4.45
2022-08-28T14:27:00.613Z,3.33
2022-08-28T14:28:32.619Z,3.20
2022-08-28T14:30:07.280Z,3.92
2022-08-28T14:31:41.163Z,2.75
2022-08-28T14:33:15.421Z,4.00
2022-08-28T14:34:50.309Z,3.80
2022-08-28T14:36:25.814Z,3.20
2022-08-28T14:37:57.741Z,2.65
2022-08-28T14:39:29.639Z,3.95
2022-08-28T14:41:03.024Z,2.83
2022-08-28T14:42:35.016Z,3.25
2022-08-28T14:44:09.836Z,2.67
2022-08-28T14:45:43.667Z,4.15
2022-08-28T14:47:15.616Z,1.90
2022-08-28T14:48:48.140Z,3.75
2022-08-28T14:50:20.012Z,5.63
2022-08-28T14:51:54.237Z,2.33
2022-08-28T14:53:26.178Z,3.22
2022-08-28T14:54:58.113Z,4.38
2022-08-28T14:56:31.802Z,4.00
2022-08-28T14:58:03.740Z,3.60
2022-08-28T14:59:36.331Z,4.22
2022-08-28T15:01:08.261Z,4.32
2022-08-28T15:02:40.071Z,4.18
2022-08-28T15:04:15.805Z,3.22
2022-08-28T15:05:48.131Z,2.88
2022-08-28T15:07:21.361Z,2.92
2022-08-28T15:08:54.222Z,4.00
2022-08-28T15:10:26.104Z,2.63
2022-08-28T15:11:58.043Z,5.10
2022-08-28T15:13:31.368Z,3.25
2022-08-28T15:15:03.719Z,2.92
2022-08-28T15:16:42.051Z,4.00
2022-08-28T15:18:14.418Z,3.60
2022-08-28T15:19:48.846Z,2.70
2022-08-28T15:21:29.344Z,3.53
2022-08-28T15:23:01.228Z,4.55
2022-08-28T15:24:34.606Z,4.40
2022-08-28T15:26:06.637Z,2.50
2022-08-28T15:27:38.806Z,2.47
2022-08-28T15:29:12.104Z,2.15
2022-08-28T15:30:43.996Z,3.20
2022-08-28T15:32:16.568Z,4.25
2022-08-28T15:33:49.256Z,3.67
2022-08-28T15:35:21.198Z,3.15
2022-08-28T15:36:55.063Z,4.75
2022-08-28T15:38:28.083Z,4.78
2022-08-28T15:40:18.609Z,2.95
2022-08-28T15:41:50.642Z,4.18
2022-08-28T15:43:22.535Z,2.22
2022-08-28T15:44:54.383Z,2.95
2022-08-28T15:46:27.153Z,3.33
2022-08-28T15:47:58.996Z,3.20
2022-08-28T15:49:38.903Z,2.28
2022-08-28T15:51:21.745Z,2.13
2022-08-28T15:52:57.546Z,2.15
2022-08-28T15:54:31.976Z,3.30
2022-08-28T15:56:04.091Z,3.72
2022-08-28T15:57:36.022Z,3.10
2022-08-28T15:59:11.522Z,2.97
2022-08-28T16:00:43.351Z,3.03
2022-08-28T16:02:15.285Z,6.90
2022-08-28T16:03:47.250Z,3.88
2022-08-28T16:05:19.071Z,4.80
2022-08-28T16:06:50.895Z,6.20
2022-08-28T16:08:32.367Z,3.13
2022-08-28T16:10:07.263Z,3.30
2022-08-28T16:11:42.079Z,4.03
2022-08-28T16:13:14.103Z,1.55
2022-08-28T16:14:46.115Z,3.17
2022-08-28T16:16:18.260Z,2.63
2022-08-28T16:17:50.293Z,5.35
2022-08-28T16:19:22.138Z,2.40
2022-08-28T16:20:53.975Z,2.75
2022-08-28T16:22:26.654Z,2.75
2022-08-28T16:25:30.278Z,3.20
2022-08-28T16:27:02.403Z,2.05
2022-08-28T16:28:35.089Z,2.30
2022-08-28T16:30:15.868Z,2.28
2022-08-28T16:31:48.162Z,3.33
2022-08-28T16:33:22.310Z,3.22
2022-08-28T16:34:54.519Z,5.68
2022-08-28T16:36:26.870Z,4.75
2022-08-28T16:37:59.273Z,3.35
2022-08-28T16:39:31.111Z,3.28
2022-08-28T16:41:03.005Z,4.75
2022-08-28T16:42:35.373Z,2.25
2022-08-28T16:44:07.195Z,2.55
2022-08-28T16:45:43.672Z,3.03
2022-08-28T16:47:15.568Z,3.35
2022-08-28T16:48:47.895Z,3.10
2022-08-28T16:50:19.949Z,3.25
2022-08-28T16:51:52.214Z,2.75
2022-08-28T16:53:24.407Z,3.85
2022-08-28T16:54:59.995Z,2.67
2022-08-28T16:56:31.958Z,2.10
2022-08-28T16:58:04.447Z,3.22
2022-08-28T16:59:36.440Z,9.32
2022-08-28T17:01:10.414Z,3.92
2022-08-28T17:02:43.780Z,3.03
2022-08-28T17:04:15.696Z,5.10
2022-08-28T17:05:47.649Z,5.80
2022-08-28T17:07:19.942Z,3.92
2022-08-28T17:08:57.199Z,3.72
2022-08-28T17:10:29.366Z,1.80
2022-08-28T17:13:36.387Z,4.60
2022-08-28T17:15:09.466Z,3.03
2022-08-28T17:16:43.264Z,3.50
2022-08-28T17:18:15.307Z,3.45
2022-08-28T17:19:47.134Z,4.22
2022-08-28T17:21:37.685Z,5.53
2022-08-28T17:23:12.675Z,3.53
2022-08-28T17:24:44.472Z,3.38
2022-08-28T17:26:19.186Z,4.22
2022-08-28T17:27:51.541Z,2.80
2022-08-28T17:29:23.574Z,2.47
2022-08-28T17:30:56.460Z,2.75
2022-08-28T17:32:28.562Z,5.03
2022-08-28T17:34:00.567Z,4.75
2022-08-28T17:35:32.462Z,3.95
2022-08-28T17:37:13.938Z,4.53
2022-08-28T17:38:46.702Z,6.00
2022-08-28T17:40:18.622Z,3.50
2022-08-28T17:41:50.558Z,5.65
2022-08-28T17:43:22.549Z,3.67
2022-08-28T17:45:08.515Z,4.80
2022-08-28T17:46:40.516Z,4.10
2022-08-28T17:48:12.431Z,6.88
2022-08-28T17:49:44.666Z,3.10
2022-08-28T17:51:16.532Z,4.22
2022-08-28T17:52:52.298Z,3.65
2022-08-28T17:54:24.773Z,3.97
2022-08-28T17:55:59.415Z,3.30
2022-08-28T17:57:31.433Z,7.10
2022-08-28T17:59:03.362Z,3.42
2022-08-28T18:00:35.486Z,2.35
2022-08-28T18:02:07.574Z,4.93
2022-08-28T18:03:52.950Z,6.38
2022-08-28T18:05:25.556Z,3.15
2022-08-28T18:06:58.410Z,3.65
2022-08-28T18:08:30.224Z,2.72
2022-08-28T18:10:02.139Z,4.78
2022-08-28T18:11:34.099Z,3.08
2022-08-28T18:13:06.661Z,4.57
2022-08-28T18:14:38.493Z,2.90
2022-08-28T18:16:10.413Z,7.40
2022-08-28T18:17:44.097Z,9.20
2022-08-28T18:19:16.617Z,4.63
2022-08-28T18:20:48.485Z,5.32
2022-08-28T18:22:20.371Z,5.43
2022-08-28T18:23:52.210Z,5.60
2022-08-28T18:25:50.762Z,4.10
2022-08-28T18:27:26.552Z,3.42
2022-08-28T18:28:58.441Z,5.15
2022-08-28T18:30:30.441Z,5.25
2022-08-28T18:32:04.277Z,3.70
2022-08-28T18:33:37.368Z,6.30
2022-08-28T18:35:09.366Z,4.85
2022-08-28T18:36:42.242Z,4.63
2022-08-28T18:38:14.798Z,6.32
2022-08-28T18:39:46.877Z,4.93
2022-08-28T18:41:30.719Z,4.18
2022-08-28T18:43:14.245Z,4.50
2022-08-28T18:44:46.096Z,3.50
2022-08-28T18:46:18.119Z,5.53
2022-08-28T18:47:50.287Z,6.88
2022-08-28T18:49:22.169Z,3.92
2022-08-28T18:50:54.248Z,3.53
2022-08-28T18:52:26.294Z,4.55
2022-08-28T18:54:01.055Z,3.35
2022-08-28T18:55:34.029Z,3.97
2022-08-28T18:57:06.003Z,4.05
2022-08-28T18:58:39.130Z,5.15
2022-08-28T19:00:11.920Z,3.30
2022-08-28T19:01:44.010Z,6.20
2022-08-28T19:03:15.899Z,16.98
2022-08-28T19:04:47.836Z,12.25
2022-08-28T19:06:19.636Z,4.53
2022-08-28T19:07:52.016Z,5.68
2022-08-28T19:09:30.334Z,4.18
2022-08-28T19:11:11.956Z,2.60
2022-08-28T19:12:43.757Z,4.15
2022-08-28T19:14:15.644Z,2.50
2022-08-28T19:15:52.721Z,4.50
2022-08-28T19:17:25.647Z,4.78
2022-08-28T19:18:57.533Z,4.75
2022-08-28T19:20:30.402Z,4.78
2022-08-28T19:22:02.303Z,5.20
2022-08-28T19:23:34.428Z,4.57
2022-08-28T19:25:13.336Z,7.18
2022-08-28T19:27:00.834Z,5.75
2022-08-28T19:30:06.700Z,4.75
2022-08-28T19:31:38.982Z,7.53
2022-08-28T19:33:12.720Z,6.55
2022-08-28T19:34:44.623Z,9.55
2022-08-28T19:36:16.646Z,4.50
2022-08-28T19:37:49.779Z,6.45
2022-08-28T19:39:21.600Z,6.20
2022-08-28T19:40:53.478Z,4.25
2022-08-28T19:42:25.455Z,4.43
2022-08-28T19:43:57.353Z,5.57
2022-08-28T19:45:29.819Z,2.47
2022-08-28T19:47:02.026Z,3.00
2022-08-28T19:48:34.431Z,2.58
2022-08-28T19:50:08.545Z,3.85
2022-08-28T19:51:41.337Z,5.47
2022-08-28T19:53:13.448Z,4.90
2022-08-28T19:54:45.315Z,6.20
2022-08-28T19:56:17.187Z,6.50
2022-08-28T19:57:49.474Z,3.23
2022-08-28T19:59:26.515Z,7.45
2022-08-28T20:00:58.981Z,4.68
2022-08-28T20:02:31.116Z,3.97
2022-08-28T20:04:04.271Z,5.57
2022-08-28T20:05:38.383Z,3.30
2022-08-28T20:07:10.288Z,4.22
2022-08-28T20:08:42.278Z,5.43
2022-08-28T20:10:15.488Z,3.50
2022-08-28T20:11:47.537Z,5.47
2022-08-28T20:13:19.411Z,4.13
2022-08-28T20:14:51.263Z,5.07
2022-08-28T20:16:24.666Z,2.77
2022-08-28T20:17:57.981Z,4.13
2022-08-28T20:21:02.089Z,4.07
2022-08-28T20:22:34.265Z,3.75
2022-08-28T20:24:14.658Z,3.88
2022-08-28T20:25:48.336Z,3.88
2022-08-28T20:27:21.280Z,3.42
2022-08-28T20:28:54.049Z,5.00
2022-08-28T20:31:57.725Z,5.78
2022-08-28T20:33:29.553Z,7.07
2022-08-28T20:35:01.900Z,4.15
2022-08-28T20:36:33.889Z,5.03
2022-08-28T20:38:05.797Z,7.00
2022-08-28T20:39:41.574Z,4.70
2022-08-28T20:41:16.199Z,4.82
2022-08-28T20:42:48.979Z,2.60
2022-08-28T20:44:21.564Z,5.05
2022-08-28T20:45:53.491Z,3.78
2022-08-28T20:47:25.952Z,2.67
2022-08-28T20:48:57.812Z,2.38
2022-08-28T20:50:29.686Z,6.77
2022-08-28T20:52:01.859Z,4.50
2022-08-28T20:53:37.060Z,3.33
2022-08-28T20:55:10.685Z,6.80
2022-08-28T20:58:14.989Z,3.72
2022-08-28T20:59:47.875Z,4.35
2022-08-28T21:01:19.788Z,5.03
2022-08-28T21:02:51.877Z,4.93
2022-08-28T21:04:24.446Z,3.65
2022-08-28T21:05:56.586Z,5.43
2022-08-28T21:07:28.623Z,6.85
2022-08-28T21:09:00.773Z,2.92
2022-08-28T21:10:32.794Z,4.00
2022-08-28T21:12:04.695Z,2.88
2022-08-28T21:13:36.526Z,2.83
2022-08-28T21:15:11.252Z,3.28
2022-08-28T21:16:44.044Z,5.07
2022-08-28T21:18:16.256Z,3.30
2022-08-28T21:19:50.742Z,2.92
2022-08-28T21:21:22.594Z,3.30
2022-08-28T21:22:54.733Z,3.22
2022-08-28T21:24:26.876Z,3.70
2022-08-28T21:25:59.748Z,5.55
2022-08-28T21:27:31.714Z,3.60
2022-08-28T21:29:05.913Z,2.88
2022-08-28T21:30:40.972Z,3.53
2022-08-28T21:32:13.289Z,3.88
2022-08-28T21:33:45.118Z,4.38
2022-08-28T21:35:18.082Z,4.03
2022-08-28T21:36:51.098Z,4.63
2022-08-28T21:38:22.919Z,4.75